Terminal Aerodrome Forecast
Issued by NWS San Angelo, TX

Current Version | Previous Version | Text Only | Print | Product List | Glossary On
Versions: 1 2 3 4 5 6 7 8 9 10 11 12 13
000
FTUS44 KSJT 260539 AAA
TAFSJT
TAF AMD
KSJT 260539Z 2606/2706 15010KT P6SM SKC
      TEMPO 2606/2607 04015G35KT P6SM SKC
     FM261600 21011G18KT P6SM SKC=

USA.gov is the U.S. government's official web portal to all federal, state and local government web resources and services.